Time;durP1;ratioP1;P1;durP2;ratioP2;P2;SDS_P1;SDS_P2;PMS_P1;PMS_P2;Temp;Humidity;BMP_temperature;BMP_pressure;BME280_temperature;BME280_humidity;BME280_pressure;Samples;Min_cycle;Max_cycle;Signal;HPM_P1;HPM_P2
2023/01/10 00:00:05;;;;;;;11.27;3.63;;;;;;;7.19;100.00;101177.88;10416630;28;20048;-67
2023/01/10 00:05:05;;;;;;;12.52;3.67;;;;;;;7.21;100.00;101181.25;10415614;28;20184;-66
2023/01/10 00:10:06;;;;;;;12.75;4.78;;;;;;;7.32;100.00;101177.38;10415985;28;20354;-66
2023/01/10 00:15:07;;;;;;;12.30;4.55;;;;;;;7.33;100.00;101187.13;10416078;28;20446;-67
2023/01/10 00:20:08;;;;;;;16.08;5.38;;;;;;;7.35;100.00;101192.34;10416101;28;20029;-67
2023/01/10 00:25:09;;;;;;;17.10;4.25;;;;;;;7.36;100.00;101199.41;10415375;28;20041;-67
2023/01/10 00:30:13;;;;;;;17.88;5.32;;;;;;;7.38;100.00;101214.41;10415541;28;20037;-67
2023/01/10 00:35:13;;;;;;;15.35;4.40;;;;;;;7.40;100.00;101215.09;10406682;28;20041;-67
2023/01/10 00:40:14;;;;;;;17.83;4.20;;;;;;;7.43;100.00;101213.88;10414205;28;20068;-66
2023/01/10 00:45:15;;;;;;;28.38;4.40;;;;;;;7.42;100.00;101231.06;10414753;28;20040;-66
2023/01/10 00:50:16;;;;;;;24.20;4.25;;;;;;;7.45;100.00;101228.88;10414772;28;20034;-67
2023/01/10 00:55:16;;;;;;;16.55;4.35;;;;;;;7.49;100.00;101239.31;10415189;28;20478;-68
2023/01/10 01:00:17;;;;;;;14.57;4.78;;;;;;;7.46;100.00;101232.41;10415239;28;20033;-67
2023/01/10 01:05:18;;;;;;;20.80;2.90;;;;;;;7.37;100.00;101242.38;10415030;28;20110;-66
2023/01/10 01:10:27;;;;;;;9.52;4.55;;;;;;;7.39;100.00;101247.56;10415374;28;20046;-67
2023/01/10 01:15:28;;;;;;;13.70;4.45;;;;;;;7.44;100.00;101266.78;10384487;28;20033;-67
2023/01/10 01:20:28;;;;;;;18.75;5.10;;;;;;;7.44;100.00;101266.78;10419448;28;20073;-66
2023/01/10 01:25:29;;;;;;;19.50;5.65;;;;;;;7.50;100.00;101270.63;10404657;28;20076;-67
2023/01/10 01:30:29;;;;;;;21.08;5.18;;;;;;;7.49;100.00;101271.66;10422995;28;20354;-67
2023/01/10 01:35:32;;;;;;;15.80;4.38;;;;;;;7.50;100.00;101281.41;10422220;28;20112;-67
2023/01/10 01:40:32;;;;;;;15.75;6.20;;;;;;;7.49;100.00;101285.13;10423193;28;20048;-66
2023/01/10 01:45:39;;;;;;;19.67;5.22;;;;;;;7.55;100.00;101292.53;10423138;28;20124;-67
2023/01/10 01:51:04;;;;;;;13.35;5.00;;;;;;;7.50;100.00;101290.38;10423809;28;20034;-67
2023/01/10 01:56:16;;;;;;;10.05;4.00;;;;;;;7.51;100.00;101301.97;10405870;28;20092;-67
2023/01/10 02:01:16;;;;;;;11.50;4.32;;;;;;;7.52;100.00;101307.19;10397772;28;20080;-68
2023/01/10 02:06:17;;;;;;;23.33;6.25;;;;;;;7.56;100.00;101322.03;10403769;28;20029;-66
2023/01/10 02:11:17;;;;;;;19.52;4.28;;;;;;;7.57;100.00;101320.19;10402659;28;20045;-66
2023/01/10 02:16:18;;;;;;;17.50;4.35;;;;;;;7.60;100.00;101314.47;10420600;28;20029;-66
2023/01/10 02:21:24;;;;;;;9.90;3.78;;;;;;;7.60;100.00;101318.00;10420981;28;20458;-67
2023/01/10 02:26:46;;;;;;;19.60;5.72;;;;;;;7.55;100.00;101317.63;10420210;28;20046;-67
2023/01/10 02:32:08;;;;;;;19.42;5.28;;;;;;;7.54;100.00;101331.28;10419629;28;20359;-67
2023/01/10 02:37:15;;;;;;;14.23;3.85;;;;;;;7.58;100.00;101336.16;10420474;28;20044;-66
2023/01/10 02:42:22;;;;;;;21.13;4.70;;;;;;;7.62;100.00;101342.06;10386177;28;20033;-67
2023/01/10 02:47:22;;;;;;;;;;;;;;;7.59;100.00;101356.72;10386433;28;20041;-67
2023/01/10 02:52:25;;;;;;;17.63;5.18;;;;;;;7.55;100.00;101368.84;10418535;28;19917;-67
2023/01/10 02:57:46;;;;;;;12.95;4.22;;;;;;;7.50;100.00;101355.03;10419076;28;20358;-67
2023/01/10 03:03:32;;;;;;;11.77;4.47;;;;;;;7.35;100.00;101359.38;10418840;28;20116;-67
2023/01/10 03:08:35;;;;;;;27.00;5.97;;;;;;;7.23;100.00;101357.00;10323940;28;20041;-67
2023/01/10 03:13:54;;;;;;;33.05;5.85;;;;;;;7.18;100.00;101364.75;10400780;28;20025;-66
2023/01/10 03:19:07;;;;;;;21.63;5.97;;;;;;;7.12;100.00;101365.38;10402847;28;20029;-66
2023/01/10 03:24:12;;;;;;;16.90;5.38;;;;;;;7.12;100.00;101365.38;10390933;28;20029;-67
2023/01/10 03:29:12;;;;;;;21.08;6.68;;;;;;;6.95;100.00;101364.47;10403179;28;20041;-67
2023/01/10 03:34:13;;;;;;;24.85;6.47;;;;;;;6.81;100.00;101372.34;10367681;28;20458;-67
2023/01/10 03:39:21;;;;;;;20.48;4.90;;;;;;;6.82;100.00;101390.16;10399836;28;20029;-66
2023/01/10 03:44:43;;;;;;;24.05;6.30;;;;;;;6.74;100.00;101388.28;10400598;28;20484;-66
2023/01/10 03:49:46;;;;;;;29.88;6.45;;;;;;;6.66;100.00;101402.53;10392790;28;20109;-67
2023/01/10 03:54:47;;;;;;;8.60;3.88;;;;;;;6.53;100.00;101402.13;10426554;28;20029;-67
2023/01/10 03:59:50;;;;;;;43.08;6.85;;;;;;;6.44;100.00;101408.44;10419363;28;20029;-67
2023/01/10 04:04:51;;;;;;;10.27;4.88;;;;;;;6.33;100.00;101395.28;10399330;28;20477;-68
2023/01/10 04:09:51;;;;;;;18.98;5.07;;;;;;;6.24;100.00;101399.72;10417352;28;20044;-67
2023/01/10 04:14:52;;;;;;;21.45;5.72;;;;;;;6.16;100.00;101413.97;10399869;28;20064;-67
2023/01/10 04:19:52;;;;;;;16.80;5.47;;;;;;;6.09;100.00;101437.09;10415880;28;20033;-66
2023/01/10 04:24:53;;;;;;;20.23;5.55;;;;;;;6.01;100.00;101437.88;10416209;28;20126;-67
2023/01/10 04:29:53;;;;;;;19.92;5.78;;;;;;;6.02;100.00;101433.34;10375823;28;20466;-66
2023/01/10 04:34:54;;;;;;;33.72;6.47;;;;;;;5.91;100.00;101423.63;10375400;28;20423;-66
2023/01/10 04:39:54;;;;;;;23.67;6.72;;;;;;;5.90;100.00;101438.06;10374553;28;20041;-67
2023/01/10 04:44:54;;;;;;;24.08;7.00;;;;;;;5.85;100.00;101443.06;10376111;28;20037;-67
2023/01/10 04:49:55;;;;;;;25.63;7.00;;;;;;;5.80;100.00;101465.00;10356905;28;20049;-68
2023/01/10 04:54:56;;;;;;;27.88;5.55;;;;;;;5.77;100.00;101470.69;10378248;28;20112;-66
2023/01/10 04:59:56;;;;;;;20.15;7.05;;;;;;;5.74;100.00;101476.41;10382538;28;20042;-67
2023/01/10 05:04:56;;;;;;;27.23;7.35;;;;;;;5.65;100.00;101468.38;10383535;28;20422;-67
2023/01/10 05:09:57;;;;;;;25.90;4.93;;;;;;;5.58;100.00;101482.44;10364021;28;20037;-66
2023/01/10 05:14:57;;;;;;;20.95;5.43;;;;;;;5.55;100.00;101479.19;10382716;28;20032;-67
2023/01/10 05:19:58;;;;;;;16.40;4.80;;;;;;;5.46;100.00;101491.69;10381804;28;20389;-66
2023/01/10 05:24:58;;;;;;;26.55;6.45;;;;;;;5.43;100.00;101501.91;10381810;28;20085;-66
2023/01/10 05:29:58;;;;;;;42.42;7.22;;;;;;;5.42;100.00;101505.56;10380860;28;20069;-67
2023/01/10 05:34:59;;;;;;;24.65;5.80;;;;;;;5.39;100.00;101508.53;10363618;28;20061;-67
2023/01/10 05:39:59;;;;;;;21.13;6.45;;;;;;;5.33;100.00;101523.44;10363215;28;20030;-66
2023/01/10 05:45:00;;;;;;;16.63;5.47;;;;;;;5.37;100.00;101524.81;10381333;28;20481;-67
2023/01/10 05:50:00;;;;;;;18.75;6.38;;;;;;;5.36;100.00;101523.97;10381179;28;20087;-68
2023/01/10 05:55:00;;;;;;;18.70;6.70;;;;;;;5.32;100.00;101529.78;10381430;28;20037;-67
2023/01/10 06:00:02;;;;;;;23.60;6.70;;;;;;;5.31;100.00;101538.81;10380193;28;20088;-67
2023/01/10 06:05:02;;;;;;;17.17;6.10;;;;;;;5.29;100.00;101540.81;10361612;28;20045;-66
2023/01/10 06:10:03;;;;;;;34.38;7.93;;;;;;;5.27;100.00;101521.34;10380914;28;20347;-67
2023/01/10 06:15:05;;;;;;;17.45;5.63;;;;;;;5.26;100.00;101525.00;10379646;28;20093;-67
2023/01/10 06:20:05;;;;;;;35.67;8.02;;;;;;;5.25;100.00;101536.72;10363031;28;20173;-67
2023/01/10 06:25:06;;;;;;;31.13;6.50;;;;;;;5.22;100.00;101545.91;10380180;28;20092;-67
2023/01/10 06:30:08;;;;;;;14.73;4.22;;;;;;;5.26;100.00;101544.63;10347399;28;20050;-67
2023/01/10 06:35:09;;;;;;;15.88;5.47;;;;;;;5.33;100.00;101556.50;10413560;28;20446;-67
2023/01/10 06:40:10;;;;;;;18.02;6.20;;;;;;;5.62;100.00;101571.63;10421283;28;20038;-67
2023/01/10 06:45:11;;;;;;;13.10;4.45;;;;;;;5.79;100.00;101570.00;10401316;28;20080;-66
2023/01/10 06:50:11;;;;;;;16.20;4.72;;;;;;;5.98;100.00;101580.66;10400545;28;20069;-67
2023/01/10 06:55:12;;;;;;;25.08;5.82;;;;;;;6.12;100.00;101590.03;10418951;28;20029;-67
2023/01/10 07:00:13;;;;;;;14.00;4.40;;;;;;;6.26;100.00;101605.69;10401279;28;20076;-67
2023/01/10 07:05:13;;;;;;;19.42;5.85;;;;;;;6.28;100.00;101606.34;10410156;28;20043;-67
2023/01/10 07:10:14;;;;;;;32.28;6.78;;;;;;;6.16;100.00;101602.22;10399991;28;20085;-67
2023/01/10 07:15:14;;;;;;;34.53;7.97;;;;;;;6.11;100.00;101626.00;10416814;28;20045;-67
2023/01/10 07:20:15;;;;;;;21.20;5.07;;;;;;;5.95;100.00;101623.13;10417909;28;20044;-67
2023/01/10 07:25:15;;;;;;;23.60;4.90;;;;;;;5.90;100.00;101630.75;10417325;28;20470;-67
2023/01/10 07:30:16;;;;;;;25.48;6.35;;;;;;;5.97;100.00;101638.13;10417922;28;20045;-68
2023/01/10 07:35:16;;;;;;;16.40;6.15;;;;;;;6.17;100.00;101633.47;10416661;28;20056;-67
2023/01/10 07:40:17;;;;;;;29.05;6.10;;;;;;;6.21;100.00;101632.16;10417424;28;20030;-67
2023/01/10 07:45:17;;;;;;;31.02;7.05;;;;;;;5.91;100.00;101621.72;10399224;28;20025;-67
2023/01/10 07:50:18;;;;;;;16.73;6.53;;;;;;;5.83;100.00;101635.88;10400369;28;20033;-67
2023/01/10 07:55:18;;;;;;;24.17;7.47;;;;;;;5.70;100.00;101630.84;10381884;28;20171;-67
2023/01/10 08:00:18;;;;;;;12.18;6.50;;;;;;;5.62;100.00;101635.28;10399540;28;20061;-67
2023/01/10 08:05:19;;;;;;;15.98;5.95;;;;;;;5.49;100.00;101636.44;10415778;28;20067;-67
2023/01/10 08:10:19;;;;;;;12.10;5.10;;;;;;;5.55;100.00;101645.75;10416528;28;20091;-67
2023/01/10 08:15:20;;;;;;;17.15;5.70;;;;;;;5.54;100.00;101639.53;10415977;28;20041;-67
2023/01/10 08:20:20;;;;;;;18.92;5.03;;;;;;;5.53;100.00;101637.00;10415460;28;20029;-69
2023/01/10 08:25:21;;;;;;;27.58;6.18;;;;;;;5.53;100.00;101645.06;10415894;28;20057;-67
2023/01/10 08:30:22;;;;;;;16.70;6.45;;;;;;;5.52;100.00;101648.72;10416275;28;20127;-68
2023/01/10 08:35:23;;;;;;;12.95;4.43;;;;;;;5.51;100.00;101636.28;10415134;28;20461;-68
2023/01/10 08:40:23;;;;;;;15.27;5.40;;;;;;;5.58;100.00;101627.53;10415603;28;20033;-67
2023/01/10 08:45:23;;;;;;;16.15;5.97;;;;;;;5.62;100.00;101628.06;10416255;28;20049;-67
2023/01/10 08:50:24;;;;;;;18.92;6.07;;;;;;;5.54;100.00;101615.34;10416083;28;20414;-68
2023/01/10 08:55:24;;;;;;;13.95;4.53;;;;;;;5.56;100.00;101612.53;10401266;28;20113;-68
2023/01/10 09:00:25;;;;;;;25.15;5.35;;;;;;;5.63;100.00;101610.09;10384071;28;20096;-66
2023/01/10 09:05:25;;;;;;;30.02;6.95;;;;;;;5.66;100.00;101602.59;10414888;28;20037;-67
2023/01/10 09:10:27;;;;;;;24.73;6.55;;;;;;;5.76;100.00;101603.38;10397967;28;20048;-67
2023/01/10 09:15:29;;;;;;;14.00;5.10;;;;;;;5.76;100.00;101606.06;10398295;28;20059;-67
2023/01/10 09:20:29;;;;;;;23.98;6.47;;;;;;;5.79;100.00;101602.25;10382609;28;20030;-68
2023/01/10 09:25:30;;;;;;;22.38;7.07;;;;;;;5.81;100.00;101592.19;10413510;28;20057;-67
2023/01/10 09:30:30;;;;;;;20.85;6.88;;;;;;;6.00;100.00;101593.97;10415394;28;20037;-68
2023/01/10 09:35:31;;;;;;;22.05;6.40;;;;;;;6.08;100.00;101603.97;10413111;28;20042;-67
2023/01/10 09:41:05;;;;;;;11.80;5.88;;;;;;;6.02;100.00;101600.03;10417210;28;20112;-67
2023/01/10 09:46:19;;;;;;;30.55;6.10;;;;;;;6.14;100.00;101601.50;10421705;28;20363;-67
2023/01/10 09:51:37;;;;;;;23.30;5.45;;;;;;;6.15;100.00;101605.03;10389207;28;20030;-69
2023/01/10 09:56:37;;;;;;;18.02;5.55;;;;;;;5.97;100.00;101594.28;10402638;28;20078;-67
2023/01/10 10:01:38;;;;;;;12.32;5.75;;;;;;;6.04;100.00;101587.28;10404581;28;20059;-67
2023/01/10 10:06:38;;;;;;;32.65;7.35;;;;;;;5.95;100.00;101598.94;10420767;28;20148;-67
2023/01/10 10:12:00;;;;;;;27.92;5.65;;;;;;;5.89;100.00;101584.22;10386612;28;20080;-68
2023/01/10 10:17:19;;;;;;;17.27;5.45;;;;;;;5.89;100.00;101578.84;10419946;28;20033;-67
2023/01/10 10:22:33;;;;;;;18.02;4.57;;;;;;;5.79;100.00;101583.44;10421178;28;20029;-68
2023/01/10 10:27:58;;;;;;;22.42;6.53;;;;;;;5.94;100.00;101573.91;10403773;28;20148;-68
2023/01/10 10:33:08;;;;;;;26.48;6.18;;;;;;;6.01;100.00;101564.22;10388069;28;20370;-69
2023/01/10 10:38:17;;;;;;;17.08;5.80;;;;;;;6.02;100.00;101554.31;10386880;28;20025;-68
2023/01/10 10:43:20;;;;;;;12.13;6.10;;;;;;;6.02;100.00;101552.47;10419871;28;20113;-67
2023/01/10 10:48:51;;;;;;;27.70;6.68;;;;;;;6.02;100.00;101530.97;10420012;28;20041;-68
2023/01/10 10:53:53;;;;;;;15.98;6.05;;;;;;;6.08;100.00;101521.44;10397544;28;20041;-67
2023/01/10 10:58:55;;;;;;;19.73;6.95;;;;;;;6.10;100.00;101519.47;10401408;28;20045;-68
2023/01/10 11:04:00;;;;;;;25.75;7.53;;;;;;;6.18;100.00;101516.00;10385164;28;20119;-68
2023/01/10 11:09:03;;;;;;;17.15;5.82;;;;;;;6.28;100.00;101516.75;10384792;28;20021;-68
2023/01/10 11:14:05;;;;;;;21.30;6.95;;;;;;;6.35;100.00;101503.53;10386805;28;20045;-70
2023/01/10 11:19:12;;;;;;;25.77;6.15;;;;;;;6.37;100.00;101498.84;10405169;28;20029;-69
2023/01/10 11:24:30;;;;;;;33.03;7.30;;;;;;;6.26;100.00;101500.78;10399424;28;20029;-67
2023/01/10 11:29:37;;;;;;;8.57;5.15;;;;;;;6.32;100.00;101495.78;10417388;28;20053;-68
2023/01/10 11:34:38;;;;;;;;;;;;;;;6.40;100.00;101485.09;10419070;28;20083;-67
2023/01/10 11:39:38;;;;;;;23.98;6.25;;;;;;;6.47;100.00;101462.78;10399975;28;19940;-69
2023/01/10 11:44:38;;;;;;;15.32;5.50;;;;;;;6.50;100.00;101461.63;10399395;28;20092;-69
2023/01/10 11:49:40;;;;;;;19.95;5.45;;;;;;;6.64;100.00;101453.00;10417151;28;20034;-68
2023/01/10 11:54:40;;;;;;;19.95;6.75;;;;;;;6.65;100.00;101443.91;10383290;28;20025;-68
2023/01/10 11:59:52;;;;;;;14.00;5.18;;;;;;;6.68;100.00;101419.38;10416815;28;20421;-67
2023/01/10 12:04:53;;;;;;;11.02;4.82;;;;;;;6.74;100.00;101421.44;10399039;28;20037;-67
2023/01/10 12:10:00;;;;;;;25.70;6.07;;;;;;;6.76;100.00;101410.47;10382329;28;20033;-68
2023/01/10 12:15:24;;;;;;;13.27;4.45;;;;;;;6.75;100.00;101414.19;10366358;28;20448;-67
2023/01/10 12:20:29;;;;;;;24.13;8.23;;;;;;;6.72;100.00;101406.44;10398589;28;20033;-68
2023/01/10 12:25:33;;;;;;;32.92;5.90;;;;;;;6.85;100.00;101404.13;10397662;28;20427;-68
2023/01/10 12:30:42;;;;;;;16.13;4.97;;;;;;;6.87;100.00;101401.31;10397787;28;20401;-68
2023/01/10 12:35:55;;;;;;;16.13;5.45;;;;;;;6.70;100.00;101384.22;10397479;28;20034;-67
2023/01/10 12:40:57;;;;;;;16.65;5.43;;;;;;;6.83;100.00;101391.84;10399642;28;20068;-68
2023/01/10 12:46:01;;;;;;;13.15;4.07;;;;;;;6.58;100.00;101370.19;10383189;28;20033;-67
2023/01/10 12:51:04;;;;;;;16.95;5.55;;;;;;;6.55;100.00;101362.44;10401020;28;20100;-68
2023/01/10 12:56:06;;;;;;;18.63;5.53;;;;;;;6.43;100.00;101347.56;10397096;28;20037;-68
2023/01/10 13:01:07;;;;;;;21.40;5.50;;;;;;;6.33;100.00;101336.94;10397760;28;20030;-66
2023/01/10 13:06:15;;;;;;;22.17;5.38;;;;;;;6.09;100.00;101334.91;10380676;28;20369;-66
2023/01/10 13:11:15;;;;;;;6.35;3.70;;;;;;;6.02;100.00;101321.25;10380993;28;20026;-67
2023/01/10 13:16:40;;;;;;;13.02;5.50;;;;;;;5.98;100.00;101306.47;10400718;28;20454;-67
2023/01/10 13:21:41;;;;;;;17.00;6.25;;;;;;;5.93;100.00;101294.47;10423558;28;20041;-66
2023/01/10 13:26:57;;;;;;;16.20;5.72;;;;;;;6.01;100.00;101297.25;10404649;28;20049;-67
2023/01/10 13:32:00;;;;;;;14.15;5.38;;;;;;;5.86;100.00;101279.97;10408588;28;20034;-66
2023/01/10 13:37:03;;;;;;;15.68;6.40;;;;;;;5.85;100.00;101259.47;10410573;28;20094;-66
2023/01/10 13:47:45;;;;;;;10.52;4.43;;;;;;;5.73;100.00;101224.78;10421052;28;20041;-66
2023/01/10 13:52:45;;;;;;;8.10;4.35;;;;;;;5.71;100.00;101208.00;10421075;28;20025;-65
2023/01/10 13:57:56;;;;;;;10.73;4.50;;;;;;;5.61;100.00;101188.41;10402449;28;20045;-65
2023/01/10 14:02:57;;;;;;;11.27;4.72;;;;;;;5.57;100.00;101189.75;10387923;28;20065;-68
2023/01/10 14:07:57;;;;;;;21.33;7.68;;;;;;;5.62;100.00;101168.63;10420165;28;20515;-65
2023/01/10 14:13:13;;;;;;;9.23;4.63;;;;;;;5.51;100.00;101148.25;10403224;28;20065;-66
2023/01/10 14:18:20;;;;;;;23.35;5.28;;;;;;;5.48;100.00;101128.91;10403010;28;20048;-66
2023/01/10 14:23:21;;;;;;;17.23;5.18;;;;;;;5.48;100.00;101115.47;10386129;28;20454;-65
2023/01/10 14:28:26;;;;;;;7.57;3.08;;;;;;;5.48;100.00;101123.53;10418734;28;20049;-65
2023/01/10 14:33:26;;;;;;;14.85;3.88;;;;;;;5.53;100.00;101079.09;10386043;28;20083;-65
2023/01/10 14:38:32;;;;;;;9.60;5.85;;;;;;;5.53;100.00;101068.34;10402226;28;20095;-65
2023/01/10 14:43:39;;;;;;;0.50;0.50;;;;;;;5.52;100.00;101057.75;10404108;28;20033;-65
2023/01/10 14:48:40;;;;;;;;;;;;;;;5.55;100.00;101041.31;10403839;28;20117;-65
2023/01/10 14:53:41;;;;;;;0.60;0.60;;;;;;;5.47;100.00;101039.44;10418227;28;20011;-64
2023/01/10 14:58:41;;;;;;;0.50;0.50;;;;;;;5.51;100.00;101034.59;10401973;28;20042;-64
2023/01/10 15:03:45;;;;;;;0.80;0.80;;;;;;;5.49;100.00;101032.06;10419613;28;20423;-65
2023/01/10 15:08:45;;;;;;;0.60;0.60;;;;;;;5.48;100.00;101030.38;10400333;28;20029;-64
2023/01/10 15:14:16;;;;;;;0.60;0.60;;;;;;;5.51;100.00;100992.44;10384239;28;20033;-65
2023/01/10 15:19:20;;;;;;;0.50;0.50;;;;;;;5.53;100.00;100997.69;10384159;28;20041;-65
2023/01/10 15:24:27;;;;;;;0.70;0.70;;;;;;;5.51;100.00;100996.97;10399670;28;20033;-66
2023/01/10 15:29:28;;;;;;;0.50;0.50;;;;;;;5.43;100.00;100994.28;10400528;28;20049;-66
2023/01/10 15:34:28;;;;;;;0.40;0.40;;;;;;;5.45;100.00;100992.25;10417281;28;20026;-65
2023/01/10 15:39:31;;;;;;;0.50;0.50;;;;;;;5.47;100.00;100984.88;10399842;28;20037;-65
2023/01/10 15:44:43;;;;;;;0.38;0.38;;;;;;;5.53;100.00;100981.56;10399688;28;20457;-65
2023/01/10 15:49:51;;;;;;;0.60;0.60;;;;;;;5.55;100.00;100958.91;10400533;28;20037;-65
2023/01/10 15:54:55;;;;;;;0.68;0.68;;;;;;;5.60;100.00;100935.06;10420849;28;20033;-65
2023/01/10 15:59:57;;;;;;;0.60;0.60;;;;;;;5.62;100.00;100913.44;10424591;28;20093;-64
2023/01/10 16:05:08;;;;;;;0.80;0.80;;;;;;;5.68;100.00;100917.28;10416917;28;20034;-64
2023/01/10 16:10:25;;;;;;;0.65;0.65;;;;;;;5.72;100.00;100897.16;10417400;28;20029;-64
2023/01/10 16:15:37;;;;;;;0.40;0.40;;;;;;;5.73;100.00;100890.75;10381753;28;20433;-64
2023/01/10 16:20:39;;;;;;;0.50;0.50;;;;;;;5.80;100.00;100895.28;10398930;28;20057;-65
2023/01/10 16:25:43;;;;;;;0.70;0.70;;;;;;;5.80;100.00;100879.16;10382290;28;20042;-63
2023/01/10 16:30:45;;;;;;;0.50;0.50;;;;;;;5.91;100.00;100871.81;10398734;28;20038;-65
2023/01/10 16:35:46;;;;;;;0.57;0.57;;;;;;;5.95;100.00;100868.63;10415635;28;20397;-65
2023/01/10 16:40:48;;;;;;;1.38;1.38;;;;;;;6.02;100.00;100877.69;10398280;28;20045;-64
2023/01/10 16:45:53;;;;;;;0.50;0.50;;;;;;;6.05;100.00;100863.09;10397556;28;20055;-65
2023/01/10 16:50:53;;;;;;;3.40;3.20;;;;;;;6.10;100.00;100860.75;10414319;28;20034;-64
2023/01/10 16:55:54;;;;;;;2.20;2.15;;;;;;;6.15;100.00;100855.69;10414932;28;20041;-66
2023/01/10 17:00:57;;;;;;;1.25;1.25;;;;;;;6.19;100.00;100827.47;10414111;28;20065;-65
2023/01/10 17:05:58;;;;;;;0.80;0.80;;;;;;;6.32;100.00;100828.75;10397478;28;20040;-65
2023/01/10 17:11:00;;;;;;;0.43;0.43;;;;;;;6.37;100.00;100827.25;10414839;28;20041;-65
2023/01/10 17:16:00;;;;;;;0.70;0.70;;;;;;;6.40;100.00;100818.00;10380676;28;20033;-65
2023/01/10 17:21:00;;;;;;;0.40;0.40;;;;;;;6.48;100.00;100812.59;10414630;28;20044;-64
2023/01/10 17:26:02;;;;;;;0.57;0.57;;;;;;;6.58;100.00;100797.09;10414651;28;20093;-64
2023/01/10 17:31:03;;;;;;;0.50;0.50;;;;;;;6.66;100.00;100772.81;10397383;28;20029;-65
2023/01/10 17:36:03;;;;;;;0.38;0.38;;;;;;;6.72;100.00;100780.19;10414269;28;20531;-66
2023/01/10 17:41:06;;;;;;;2.75;2.65;;;;;;;6.77;100.00;100776.16;10414807;28;20033;-65
2023/01/10 17:46:06;;;;;;;0.50;0.50;;;;;;;6.83;100.00;100776.31;10415340;28;20052;-65
2023/01/10 17:51:07;;;;;;;0.50;0.50;;;;;;;6.88;100.00;100749.66;10415207;28;20044;-65
2023/01/10 17:56:08;;;;;;;0.85;0.85;;;;;;;6.95;100.00;100745.25;10380818;28;20080;-65
2023/01/10 18:01:22;;;;;;;1.77;1.48;;;;;;;6.99;100.00;100732.31;10382839;28;20112;-65
2023/01/10 18:06:22;;;;;;;0.60;0.60;;;;;;;7.03;100.00;100741.69;10386488;28;20036;-65
2023/01/10 18:11:23;;;;;;;0.80;0.80;;;;;;;7.10;100.00;100747.19;10422094;28;20073;-65
2023/01/10 18:16:24;;;;;;;0.30;0.30;;;;;;;7.10;100.00;100731.88;10408415;28;20033;-66
2023/01/10 18:21:24;;;;;;;14.25;9.65;;;;;;;7.16;100.00;100736.53;10413278;28;20038;-66
2023/01/10 18:26:25;;;;;;;9.20;8.13;;;;;;;7.22;100.00;100721.53;10424750;28;20088;-64
2023/01/10 18:31:25;;;;;;;11.93;9.20;;;;;;;7.23;100.00;100729.41;10404212;28;20041;-65
2023/01/10 18:36:26;;;;;;;10.98;10.00;;;;;;;7.31;100.00;100728.53;10402515;28;20127;-65
2023/01/10 18:41:26;;;;;;;14.30;9.73;;;;;;;7.40;100.00;100715.81;10420093;28;20069;-66
2023/01/10 18:46:27;;;;;;;22.27;12.98;;;;;;;7.50;100.00;100721.81;10419921;28;20068;-65
2023/01/10 18:51:27;;;;;;;17.83;12.77;;;;;;;7.61;100.00;100702.50;10419586;28;20036;-65
2023/01/10 18:56:28;;;;;;;14.43;12.80;;;;;;;7.69;100.00;100709.69;10418570;28;20060;-65
2023/01/10 19:01:29;;;;;;;14.85;10.77;;;;;;;7.77;100.00;100703.34;10401448;28;20040;-65
2023/01/10 19:06:29;;;;;;;14.65;11.45;;;;;;;7.81;100.00;100696.56;10418888;28;20033;-65
2023/01/10 19:11:30;;;;;;;11.30;9.23;;;;;;;7.90;100.00;100704.38;10417497;28;20033;-65
2023/01/10 19:16:33;;;;;;;12.02;8.85;;;;;;;7.87;100.00;100685.06;10419328;28;20120;-65
2023/01/10 19:21:34;;;;;;;9.30;8.38;;;;;;;7.93;100.00;100684.31;10418325;28;20136;-64
2023/01/10 19:26:35;;;;;;;11.98;10.77;;;;;;;7.95;100.00;100681.44;10400430;28;20127;-64
2023/01/10 19:31:35;;;;;;;16.27;8.30;;;;;;;7.98;100.00;100667.59;10400158;28;20500;-65
2023/01/10 19:36:36;;;;;;;16.20;11.80;;;;;;;8.00;100.00;100655.56;10399799;28;20033;-65
2023/01/10 19:41:36;;;;;;;9.60;8.45;;;;;;;8.08;100.00;100671.66;10400175;28;20045;-64
2023/01/10 19:46:38;;;;;;;8.85;7.80;;;;;;;8.13;100.00;100665.69;10399830;28;20366;-64
2023/01/10 19:51:39;;;;;;;12.63;7.47;;;;;;;8.22;100.00;100651.09;10400444;28;20041;-65
2023/01/10 19:56:39;;;;;;;9.80;7.90;;;;;;;8.20;100.00;100642.38;10421862;28;20166;-66
2023/01/10 20:01:40;;;;;;;6.30;5.78;;;;;;;8.32;100.00;100640.00;10405217;28;20331;-65
2023/01/10 20:06:40;;;;;;;13.88;7.72;;;;;;;8.38;100.00;100633.88;10418077;28;20520;-65
2023/01/10 20:11:41;;;;;;;9.48;7.70;;;;;;;8.42;100.00;100628.94;10415962;28;20127;-65
2023/01/10 20:16:42;;;;;;;9.98;8.15;;;;;;;8.42;100.00;100632.47;10416497;28;20030;-65
2023/01/10 20:21:43;;;;;;;9.98;8.85;;;;;;;8.45;100.00;100642.88;10415855;28;20064;-66
2023/01/10 20:26:44;;;;;;;10.95;8.52;;;;;;;8.48;100.00;100618.22;10415668;28;20366;-64
2023/01/10 20:31:46;;;;;;;8.32;7.50;;;;;;;8.52;100.00;100606.03;10415589;28;20129;-64
2023/01/10 20:36:51;;;;;;;8.38;7.57;;;;;;;8.68;100.00;100614.91;10416656;28;20041;-65
2023/01/10 20:41:51;;;;;;;9.15;8.25;;;;;;;8.71;100.00;100601.00;10401529;28;20057;-67
2023/01/10 20:46:54;;;;;;;15.98;8.38;;;;;;;8.71;100.00;100599.19;10404137;28;20069;-65
2023/01/10 20:51:54;;;;;;;9.18;8.25;;;;;;;8.75;100.00;100578.84;10415663;28;20041;-66
2023/01/10 20:56:55;;;;;;;14.48;8.30;;;;;;;8.81;100.00;100572.69;10414850;28;20137;-65
2023/01/10 21:01:55;;;;;;;8.48;7.78;;;;;;;8.90;100.00;100588.72;10414803;28;20366;-66
2023/01/10 21:06:56;;;;;;;7.68;7.10;;;;;;;8.91;100.00;100566.94;10414899;28;20034;-65
2023/01/10 21:11:56;;;;;;;12.73;9.02;;;;;;;8.85;100.00;100570.44;10415201;28;20386;-66
2023/01/10 21:16:57;;;;;;;14.68;10.65;;;;;;;8.91;100.00;100563.41;10413878;28;20167;-64
2023/01/10 21:21:57;;;;;;;8.43;7.63;;;;;;;9.00;100.00;100563.09;10414480;28;20461;-68
2023/01/10 21:26:58;;;;;;;11.50;9.82;;;;;;;9.08;100.00;100552.13;10414831;28;20053;-67
2023/01/10 21:31:58;;;;;;;8.90;8.00;;;;;;;9.15;100.00;100532.44;10381924;28;20119;-65
2023/01/10 21:36:59;;;;;;;9.27;7.70;;;;;;;9.30;100.00;100523.19;10408455;28;20037;-65
2023/01/10 21:47:18;;;;;;;7.32;6.63;;;;;;;9.39;100.00;100517.63;10437465;28;20393;-64
2023/01/10 21:52:18;;;;;;;12.57;8.30;;;;;;;9.48;100.00;100495.63;10452516;28;20038;-66
2023/01/10 21:57:21;;;;;;;10.73;9.13;;;;;;;9.62;100.00;100506.50;10450883;28;20038;-66
2023/01/10 22:02:22;;;;;;;11.07;8.10;;;;;;;9.69;100.00;100485.75;10442732;28;20044;-65
2023/01/10 22:07:24;;;;;;;11.18;7.63;;;;;;;9.68;100.00;100482.22;10429505;28;20156;-65
2023/01/10 22:12:24;;;;;;;9.55;8.52;;;;;;;9.69;100.00;100488.44;10421805;28;20493;-65
2023/01/10 22:17:25;;;;;;;13.95;8.57;;;;;;;9.74;100.00;100504.91;10421871;28;20036;-66
2023/01/10 22:22:25;;;;;;;8.27;5.82;;;;;;;9.72;100.00;100486.16;10404154;28;20571;-65
2023/01/10 22:27:28;;;;;;;9.52;8.55;;;;;;;9.72;100.00;100501.56;10403952;28;20112;-64
2023/01/10 22:32:28;;;;;;;8.27;6.95;;;;;;;9.76;100.00;100503.69;10421277;28;20033;-65
2023/01/10 22:37:28;;;;;;;11.73;8.07;;;;;;;9.80;100.00;100473.53;10420134;28;20045;-65
2023/01/10 22:42:29;;;;;;;15.27;7.45;;;;;;;9.83;100.00;100484.78;10421421;28;20034;-65
2023/01/10 22:47:29;;;;;;;9.88;5.43;;;;;;;9.86;100.00;100473.56;10402949;28;20041;-66
2023/01/10 22:52:30;;;;;;;12.13;5.22;;;;;;;9.92;100.00;100463.75;10401595;28;20044;-65
2023/01/10 22:57:31;;;;;;;8.18;6.70;;;;;;;9.99;100.00;100460.06;10405826;28;20029;-64
2023/01/10 23:02:32;;;;;;;11.77;6.60;;;;;;;10.01;100.00;100457.97;10426059;28;20099;-65
2023/01/10 23:07:32;;;;;;;5.85;5.30;;;;;;;10.04;100.00;100439.66;10431402;28;20041;-64
2023/01/10 23:12:33;;;;;;;12.55;5.22;;;;;;;10.04;100.00;100439.66;10419015;28;20532;-65